createdAt,value
2019-05-01T00:01:31.149Z,48.97
2019-05-01T00:04:10.190Z,52.67
2019-05-01T00:06:44.251Z,50.27
2019-05-01T00:09:15.806Z,51.90
2019-05-01T00:11:46.227Z,51.00
2019-05-01T00:14:17.128Z,53.07
2019-05-01T00:16:48.216Z,51.70
2019-05-01T00:19:20.312Z,54.73
2019-05-01T00:21:51.325Z,53.40
2019-05-01T00:24:21.753Z,52.27
2019-05-01T00:26:53.124Z,52.87
2019-05-01T00:29:23.863Z,53.97
2019-05-01T00:31:54.494Z,56.20
2019-05-01T00:34:25.099Z,57.47
2019-05-01T00:36:58.788Z,51.63
2019-05-01T00:39:33.754Z,54.23
2019-05-01T00:42:04.258Z,52.47
2019-05-01T00:44:34.602Z,54.40
2019-05-01T00:47:05.237Z,55.13
2019-05-01T00:49:35.694Z,57.77
2019-05-01T00:52:06.188Z,56.00
2019-05-01T00:54:38.199Z,59.50
2019-05-01T00:57:33.788Z,61.13
2019-05-01T01:00:42.420Z,55.53
2019-05-01T01:03:02.483Z,61.97
2019-05-01T01:05:32.944Z,66.67
2019-05-01T01:08:03.421Z,66.30
2019-05-01T01:10:35.951Z,63.93
2019-05-01T01:13:06.593Z,61.33
2019-05-01T01:15:37.003Z,65.03
2019-05-01T01:18:07.568Z,66.47
2019-05-01T01:20:38.074Z,61.40
2019-05-01T01:23:08.570Z,63.50
2019-05-01T01:25:39.124Z,62.40
2019-05-01T01:28:09.760Z,66.60
2019-05-01T01:30:40.427Z,61.77
2019-05-01T01:33:10.975Z,67.67
2019-05-01T01:35:41.583Z,68.13
2019-05-01T01:38:12.145Z,67.93
2019-05-01T01:40:43.052Z,64.63
2019-05-01T01:43:30.940Z,62.37
2019-05-01T01:46:04.732Z,64.70
2019-05-01T01:48:35.600Z,69.30
2019-05-01T01:51:06.040Z,64.60
2019-05-01T01:53:36.838Z,66.43
2019-05-01T01:56:07.511Z,66.57
2019-05-01T01:58:38.286Z,66.97
2019-05-01T02:01:30.291Z,68.57
2019-05-01T02:04:05.662Z,66.27
2019-05-01T02:06:36.468Z,68.57
2019-05-01T02:09:08.695Z,71.73
2019-05-01T02:11:42.730Z,70.23
2019-05-01T02:14:13.272Z,71.53
2019-05-01T02:16:44.294Z,72.83
2019-05-01T02:19:14.713Z,66.73
2019-05-01T02:21:45.197Z,74.57
2019-05-01T02:24:15.663Z,72.60
2019-05-01T02:26:48.855Z,72.67
2019-05-01T02:29:25.059Z,73.57
2019-05-01T02:31:57.296Z,71.50
2019-05-01T02:34:29.455Z,68.40
2019-05-01T02:37:03.107Z,73.43
2019-05-01T02:39:35.349Z,72.00
2019-05-01T02:42:07.588Z,72.63
2019-05-01T02:44:44.206Z,69.23
2019-05-01T02:47:20.349Z,74.77
2019-05-01T02:49:58.410Z,71.47
2019-05-01T02:52:32.367Z,79.57
2019-05-01T02:55:06.803Z,77.50
2019-05-01T02:57:40.027Z,77.47
2019-05-01T03:00:10.859Z,76.93
2019-05-01T03:02:42.311Z,76.27
2019-05-01T03:05:13.518Z,74.83
2019-05-01T03:07:44.872Z,70.70
2019-05-01T03:10:15.477Z,79.67
2019-05-01T03:12:48.536Z,77.03
2019-05-01T03:15:23.417Z,79.43
2019-05-01T03:18:14.551Z,72.20
2019-05-01T03:21:02.596Z,81.73
2019-05-01T03:23:39.456Z,79.67
2019-05-01T03:26:10.132Z,75.17
2019-05-01T03:28:42.324Z,80.20
2019-05-01T03:31:13.215Z,80.17
2019-05-01T03:33:44.008Z,80.30
2019-05-01T03:36:15.444Z,74.50
2019-05-01T03:38:45.840Z,73.97
2019-05-01T03:41:16.226Z,78.63
2019-05-01T03:43:47.009Z,87.33
2019-05-01T03:46:18.201Z,87.00
2019-05-01T03:48:48.451Z,85.03
2019-05-01T03:51:19.235Z,85.20
2019-05-01T03:53:49.927Z,88.13
2019-05-01T03:56:21.082Z,82.23
2019-05-01T03:58:52.098Z,82.50
2019-05-01T04:01:42.672Z,75.13
2019-05-01T04:04:16.385Z,76.40
2019-05-01T04:06:47.720Z,81.43
2019-05-01T04:09:20.829Z,83.77
2019-05-01T04:11:51.058Z,79.40
2019-05-01T04:14:22.016Z,73.63
2019-05-01T04:17:00.310Z,78.37
2019-05-01T04:19:33.512Z,76.77
2019-05-01T04:22:12.329Z,79.47
2019-05-01T04:24:43.541Z,59.90
2019-05-01T04:27:20.273Z,55.17
2019-05-01T04:30:12.880Z,55.80
2019-05-01T04:32:52.612Z,54.13
2019-05-01T04:35:24.635Z,48.00
2019-05-01T04:37:59.536Z,55.10
2019-05-01T04:40:33.787Z,48.97
2019-05-01T04:43:04.598Z,46.93
2019-05-01T04:45:35.717Z,47.57
2019-05-01T04:48:06.499Z,44.30
2019-05-01T04:50:39.097Z,45.60
2019-05-01T04:53:10.714Z,44.63
2019-05-01T04:55:41.329Z,41.20
2019-05-01T04:58:12.289Z,42.83
2019-05-01T05:00:43.908Z,43.83
2019-05-01T05:03:21.496Z,42.63
2019-05-01T05:05:52.855Z,38.37
2019-05-01T05:08:23.957Z,36.57
2019-05-01T05:10:56.734Z,35.40
2019-05-01T05:13:38.707Z,34.47
2019-05-01T05:16:36.895Z,36.10
2019-05-01T05:19:07.489Z,33.97
2019-05-01T05:21:38.467Z,32.47
2019-05-01T05:24:09.131Z,33.73
2019-05-01T05:26:40.329Z,35.57
2019-05-01T05:29:11.763Z,33.17
2019-05-01T05:31:44.579Z,39.20
2019-05-01T05:34:18.186Z,37.70
2019-05-01T05:36:52.924Z,36.47
2019-05-01T05:39:31.423Z,38.87
2019-05-01T05:42:05.019Z,33.93
2019-05-01T05:44:36.153Z,35.83
2019-05-01T05:47:07.638Z,36.90
2019-05-01T05:49:41.892Z,37.90
2019-05-01T05:52:20.382Z,37.97
2019-05-01T05:55:29.882Z,41.43
2019-05-01T05:58:19.240Z,38.93
2019-05-01T06:01:14.014Z,36.30
2019-05-01T06:04:01.785Z,46.10
2019-05-01T06:06:54.353Z,39.67
2019-05-01T06:09:38.322Z,37.73
2019-05-01T06:12:19.142Z,40.33
2019-05-01T06:15:06.357Z,38.43
2019-05-01T06:17:59.086Z,44.93
2019-05-01T06:20:39.278Z,49.33
2019-05-01T06:23:35.507Z,40.03
2019-05-01T06:26:24.771Z,40.23
2019-05-01T06:29:00.637Z,42.93
2019-05-01T06:31:29.798Z,41.03
2019-05-01T06:34:01.771Z,38.40
2019-05-01T06:36:33.812Z,40.23
2019-05-01T06:39:11.782Z,40.67
2019-05-01T06:41:45.040Z,39.63
2019-05-01T06:44:22.871Z,38.97
2019-05-01T06:47:06.860Z,39.57
2019-05-01T06:50:01.270Z,36.40
2019-05-01T06:52:30.750Z,40.80
2019-05-01T06:55:04.494Z,41.97
2019-05-01T06:57:38.278Z,41.87
2019-05-01T07:00:14.942Z,42.43
2019-05-01T07:02:47.964Z,41.00
2019-05-01T07:05:20.812Z,39.87
2019-05-01T07:07:54.980Z,38.13
2019-05-01T07:10:31.453Z,36.63
2019-05-01T07:13:05.134Z,42.77
2019-05-01T07:15:36.278Z,37.10
2019-05-01T07:18:07.388Z,38.87
2019-05-01T07:20:51.339Z,37.73
2019-05-01T07:23:21.638Z,39.00
2019-05-01T07:25:52.992Z,42.60
2019-05-01T07:28:29.018Z,43.13
2019-05-01T07:31:05.200Z,37.60
2019-05-01T07:33:36.310Z,41.40
2019-05-01T07:36:14.956Z,36.60
2019-05-01T07:38:41.593Z,34.60
2019-05-01T07:41:12.765Z,32.47
2019-05-01T07:44:12.159Z,36.20
2019-05-01T07:47:01.690Z,35.70
2019-05-01T07:49:54.989Z,32.20
2019-05-01T07:52:27.965Z,37.10
2019-05-01T07:55:01.846Z,37.70
2019-05-01T07:57:34.358Z,36.57
2019-05-01T08:00:11.199Z,36.73
2019-05-01T08:02:42.748Z,35.80
2019-05-01T08:05:13.595Z,38.93
2019-05-01T08:07:44.340Z,42.50
2019-05-01T08:10:15.537Z,42.43
2019-05-01T08:12:46.234Z,41.23
2019-05-01T08:15:22.511Z,40.67
2019-05-01T08:17:54.230Z,39.17
2019-05-01T08:20:31.458Z,37.33
2019-05-01T08:23:02.190Z,42.30
2019-05-01T08:25:33.249Z,42.03
2019-05-01T08:28:11.561Z,43.07
2019-05-01T08:30:58.690Z,41.33
2019-05-01T08:33:44.724Z,45.07
2019-05-01T08:36:20.968Z,37.33
2019-05-01T08:38:51.754Z,35.90
2019-05-01T08:41:22.427Z,36.87
2019-05-01T08:43:55.732Z,37.13
2019-05-01T08:47:03.237Z,34.17
2019-05-01T08:49:41.757Z,35.67
2019-05-01T08:52:13.965Z,31.70
2019-05-01T08:54:45.370Z,32.57
2019-05-01T08:57:16.709Z,32.67
2019-05-01T08:59:48.324Z,30.57
2019-05-01T09:02:19.337Z,30.40
2019-05-01T09:05:01.605Z,32.63
2019-05-01T09:07:24.176Z,29.93
2019-05-01T09:09:55.231Z,28.30
2019-05-01T09:12:29.100Z,24.90
2019-05-01T09:15:00.701Z,23.07
2019-05-01T09:17:34.993Z,25.10
2019-05-01T09:20:06.405Z,23.87
2019-05-01T09:22:39.618Z,24.90
2019-05-01T09:25:11.992Z,26.40
2019-05-01T09:27:51.285Z,23.40
2019-05-01T09:30:28.684Z,20.37
2019-05-01T09:32:59.940Z,24.50
2019-05-01T09:35:31.593Z,19.77
2019-05-01T09:38:07.674Z,19.40
2019-05-01T09:40:38.806Z,17.77
2019-05-01T09:43:09.920Z,20.13
2019-05-01T09:45:40.776Z,20.73
2019-05-01T09:48:11.880Z,19.40
2019-05-01T09:50:46.853Z,20.20
2019-05-01T09:53:34.183Z,18.73
2019-05-01T09:56:14.378Z,24.70
2019-05-01T09:58:45.244Z,18.40
2019-05-01T10:01:16.375Z,19.37
2019-05-01T10:03:49.428Z,22.13
2019-05-01T10:06:19.954Z,20.27
2019-05-01T10:08:50.714Z,23.23
2019-05-01T10:11:21.484Z,22.20
2019-05-01T10:13:53.700Z,21.70
2019-05-01T10:16:24.479Z,19.63
2019-05-01T10:18:55.593Z,20.83
2019-05-01T10:21:27.209Z,19.80
2019-05-01T10:23:59.122Z,21.00
2019-05-01T10:26:31.615Z,20.97
2019-05-01T10:29:21.430Z,22.90
2019-05-01T10:32:02.153Z,19.23
2019-05-01T10:34:48.201Z,21.97
2019-05-01T10:37:19.063Z,21.37
2019-05-01T10:39:53.698Z,20.57
2019-05-01T10:42:22.618Z,20.83
2019-05-01T10:44:53.649Z,21.47
2019-05-01T10:47:24.877Z,21.53
2019-05-01T10:49:57.984Z,19.47
2019-05-01T10:52:28.782Z,20.30
2019-05-01T10:55:00.126Z,22.30
2019-05-01T10:57:35.045Z,21.97
2019-05-01T11:00:04.102Z,19.73
2019-05-01T11:02:36.559Z,20.07
2019-05-01T11:05:07.556Z,20.57
2019-05-01T11:07:38.114Z,22.67
2019-05-01T11:10:10.690Z,21.63
2019-05-01T11:12:41.461Z,25.37
2019-05-01T11:15:12.325Z,21.93
2019-05-01T11:17:44.877Z,22.43
2019-05-01T11:20:17.882Z,22.80
2019-05-01T11:22:48.618Z,23.03
2019-05-01T11:25:20.913Z,23.40
2019-05-01T11:27:52.077Z,24.97
2019-05-01T11:30:23.137Z,23.93
2019-05-01T11:33:00.430Z,24.50
2019-05-01T11:35:49.913Z,24.43
2019-05-01T11:38:42.851Z,26.57
2019-05-01T11:41:23.947Z,24.67
2019-05-01T11:43:55.018Z,29.73
2019-05-01T11:46:26.156Z,28.30
2019-05-01T11:48:57.323Z,28.43
2019-05-01T11:51:28.467Z,30.07
2019-05-01T11:54:02.027Z,28.60
2019-05-01T11:56:31.652Z,28.67
2019-05-01T11:59:02.520Z,29.07
2019-05-01T12:01:35.273Z,31.57
2019-05-01T12:04:06.406Z,30.97
2019-05-01T12:06:37.357Z,32.60
2019-05-01T12:09:08.584Z,32.43
2019-05-01T12:11:41.559Z,30.83
2019-05-01T12:14:12.166Z,27.33
2019-05-01T12:17:03.372Z,28.60
2019-05-01T12:19:37.335Z,28.63
2019-05-01T12:22:08.060Z,23.80
2019-05-01T12:24:38.770Z,25.40
2019-05-01T12:27:09.861Z,27.57
2019-05-01T12:29:40.785Z,25.57
2019-05-01T12:32:11.620Z,23.80
2019-05-01T12:34:42.458Z,26.20
2019-05-01T12:37:22.050Z,20.13
2019-05-01T12:39:52.550Z,24.63
2019-05-01T12:42:24.581Z,24.73
2019-05-01T12:44:55.956Z,21.47
2019-05-01T12:47:57.535Z,21.47
2019-05-01T12:50:28.178Z,20.33
2019-05-01T12:53:23.420Z,22.57
2019-05-01T12:56:16.204Z,20.33
2019-05-01T12:58:48.401Z,19.00
2019-05-01T13:01:19.201Z,20.57
2019-05-01T13:03:49.918Z,19.17
2019-05-01T13:06:20.610Z,21.30
2019-05-01T13:08:51.560Z,21.37
2019-05-01T13:11:22.208Z,20.57
2019-05-01T13:13:53.201Z,20.17
2019-05-01T13:16:23.999Z,20.00
2019-05-01T13:18:54.971Z,20.20
2019-05-01T13:21:25.752Z,17.93
2019-05-01T13:23:56.618Z,21.07
2019-05-01T13:26:51.042Z,18.87
2019-05-01T13:29:35.656Z,18.73
2019-05-01T13:32:43.646Z,22.07
2019-05-01T13:35:14.720Z,19.30
2019-05-01T13:37:45.983Z,19.93
2019-05-01T13:40:19.096Z,18.63
2019-05-01T13:42:49.667Z,22.50
2019-05-01T13:45:20.646Z,20.40
2019-05-01T13:47:54.264Z,24.37
2019-05-01T13:50:25.040Z,19.60
2019-05-01T13:52:56.452Z,23.07
2019-05-01T13:55:28.125Z,22.23
2019-05-01T13:57:58.821Z,21.03
2019-05-01T14:00:29.870Z,22.70
2019-05-01T14:03:02.991Z,23.10
2019-05-01T14:05:33.655Z,23.83
2019-05-01T14:08:04.575Z,25.33
2019-05-01T14:10:35.745Z,20.87
2019-05-01T14:13:06.901Z,20.73
2019-05-01T14:15:39.091Z,21.30
2019-05-01T14:18:09.845Z,23.90
2019-05-01T14:20:52.989Z,23.00
2019-05-01T14:24:01.247Z,23.53
2019-05-01T14:26:33.778Z,19.07
2019-05-01T14:29:05.042Z,20.73
2019-05-01T14:31:35.906Z,25.83
2019-05-01T14:34:06.868Z,32.77
2019-05-01T14:36:37.536Z,26.00
2019-05-01T14:39:09.019Z,26.67
2019-05-01T14:41:40.105Z,32.20
2019-05-01T14:44:12.520Z,47.37
2019-05-01T14:46:43.256Z,30.23
2019-05-01T14:49:14.023Z,23.73
2019-05-01T14:51:44.644Z,40.57
2019-05-01T14:54:14.990Z,25.57
2019-05-01T14:56:45.948Z,24.87
2019-05-01T14:59:16.964Z,23.13
2019-05-01T15:01:47.736Z,24.07
2019-05-01T15:04:18.629Z,21.80
2019-05-01T15:06:49.215Z,24.03
2019-05-01T15:09:19.962Z,24.73
2019-05-01T15:11:50.472Z,20.70
2019-05-01T15:14:30.543Z,21.97
2019-05-01T15:17:13.331Z,22.23
2019-05-01T15:19:58.733Z,24.63
2019-05-01T15:22:29.627Z,22.50
2019-05-01T15:25:00.243Z,22.17
2019-05-01T15:27:30.859Z,24.07
2019-05-01T15:30:01.730Z,25.80
2019-05-01T15:32:32.471Z,24.17
2019-05-01T15:35:03.271Z,24.10
2019-05-01T15:37:35.275Z,26.67
2019-05-01T15:40:26.470Z,26.13
2019-05-01T15:43:15.973Z,23.67
2019-05-01T15:45:46.895Z,23.57
2019-05-01T15:48:17.611Z,25.03
2019-05-01T15:50:48.457Z,22.77
2019-05-01T15:53:19.856Z,25.70
2019-05-01T15:55:50.660Z,23.63
2019-05-01T15:58:21.437Z,23.93
2019-05-01T16:00:52.213Z,25.17
2019-05-01T16:03:23.094Z,23.67
2019-05-01T16:05:53.973Z,22.63
2019-05-01T16:08:24.951Z,25.10
2019-05-01T16:11:10.974Z,26.30
2019-05-01T16:13:42.000Z,25.23
2019-05-01T16:16:12.632Z,25.67
2019-05-01T16:18:43.588Z,27.70
2019-05-01T16:21:16.475Z,23.47
2019-05-01T16:23:47.182Z,25.37
2019-05-01T16:26:18.379Z,25.83
2019-05-01T16:28:49.623Z,27.43
2019-05-01T16:31:20.982Z,25.53
2019-05-01T16:33:52.048Z,26.77
2019-05-01T16:36:22.957Z,27.80
2019-05-01T16:39:10.148Z,28.00
2019-05-01T16:41:41.985Z,24.93
2019-05-01T16:44:13.652Z,24.37
2019-05-01T16:46:44.920Z,24.10
2019-05-01T16:49:16.537Z,25.80
2019-05-01T16:51:51.217Z,24.70
2019-05-01T16:54:22.797Z,23.30
2019-05-01T16:56:54.092Z,25.23
2019-05-01T16:59:24.986Z,24.70
2019-05-01T17:02:14.051Z,24.43
2019-05-01T17:04:56.237Z,27.00
2019-05-01T17:07:39.840Z,23.87
2019-05-01T17:10:14.750Z,22.90
2019-05-01T17:12:54.222Z,23.97
2019-05-01T17:15:41.474Z,25.70
2019-05-01T17:18:13.174Z,23.77
2019-05-01T17:20:44.848Z,25.57
2019-05-01T17:23:17.036Z,26.50
2019-05-01T17:25:48.499Z,27.70
2019-05-01T17:28:19.882Z,25.53
2019-05-01T17:30:58.761Z,24.70
2019-05-01T17:33:32.958Z,26.20
2019-05-01T17:36:04.263Z,27.37
2019-05-01T17:38:49.025Z,28.20
2019-05-01T17:41:10.555Z,26.40
2019-05-01T17:43:49.370Z,28.93
2019-05-01T17:46:18.055Z,23.60
2019-05-01T17:48:49.156Z,26.53
2019-05-01T17:51:20.495Z,25.73
2019-05-01T17:53:51.765Z,24.97
2019-05-01T17:56:28.276Z,25.30
2019-05-01T17:58:57.354Z,28.20
2019-05-01T18:01:39.861Z,25.80
2019-05-01T18:04:22.636Z,29.30
2019-05-01T18:06:53.851Z,26.53
2019-05-01T18:09:25.128Z,30.20
2019-05-01T18:11:55.922Z,27.13
2019-05-01T18:14:26.981Z,27.03
2019-05-01T18:16:58.067Z,29.03
2019-05-01T18:19:29.031Z,27.07
2019-05-01T18:22:09.434Z,24.97
2019-05-01T18:25:07.677Z,26.57
2019-05-01T18:27:55.744Z,26.27
2019-05-01T18:30:31.963Z,26.70
2019-05-01T18:33:03.178Z,24.80
2019-05-01T18:35:52.215Z,26.27
2019-05-01T18:38:43.053Z,27.27
2019-05-01T18:41:32.844Z,30.13
2019-05-01T18:44:05.191Z,27.40
2019-05-01T18:46:36.092Z,26.77
2019-05-01T18:49:06.662Z,27.97
2019-05-01T18:51:40.785Z,27.30
2019-05-01T18:54:09.095Z,24.97
2019-05-01T18:56:39.568Z,23.27
2019-05-01T18:59:10.039Z,23.80
2019-05-01T19:01:43.933Z,24.47
2019-05-01T19:04:18.537Z,23.53
2019-05-01T19:06:47.164Z,23.90
2019-05-01T19:09:29.347Z,23.37
2019-05-01T19:11:49.710Z,23.47
2019-05-01T19:14:23.498Z,25.60
2019-05-01T19:16:52.951Z,23.43
2019-05-01T19:19:23.269Z,22.90
2019-05-01T19:21:53.751Z,25.90
2019-05-01T19:24:24.666Z,24.47
2019-05-01T19:26:55.225Z,23.47
2019-05-01T19:29:26.669Z,22.90
2019-05-01T19:31:59.771Z,20.17
2019-05-01T19:34:30.243Z,23.60
2019-05-01T19:37:00.655Z,21.97
2019-05-01T19:39:42.881Z,19.60
2019-05-01T19:42:03.415Z,22.17
2019-05-01T19:44:33.966Z,19.67
2019-05-01T19:47:07.494Z,20.03
2019-05-01T19:49:36.561Z,22.07
2019-05-01T19:52:07.563Z,25.00
2019-05-01T19:54:38.191Z,20.17
2019-05-01T19:57:08.557Z,22.77
2019-05-01T19:59:38.988Z,24.63
2019-05-01T20:02:11.189Z,22.73
2019-05-01T20:04:45.292Z,24.87
2019-05-01T20:07:19.747Z,22.43
2019-05-01T20:09:56.746Z,21.13
2019-05-01T20:12:20.898Z,22.57
2019-05-01T20:14:51.283Z,22.27
2019-05-01T20:17:21.661Z,22.30
2019-05-01T20:19:52.088Z,26.37
2019-05-01T20:22:22.445Z,22.53
2019-05-01T20:24:52.843Z,27.43
2019-05-01T20:27:23.363Z,24.07
2019-05-01T20:29:55.536Z,25.33
2019-05-01T20:32:27.920Z,22.40
2019-05-01T20:34:59.409Z,23.67
2019-05-01T20:37:29.933Z,23.20
2019-05-01T20:40:11.026Z,23.97
2019-05-01T20:42:32.570Z,21.73
2019-05-01T20:45:05.471Z,21.93
2019-05-01T20:47:40.023Z,24.97
2019-05-01T20:50:08.573Z,24.37
2019-05-01T20:52:38.928Z,27.37
2019-05-01T20:55:09.475Z,24.80
2019-05-01T20:57:41.820Z,22.70
2019-05-01T21:00:16.511Z,25.93
2019-05-01T21:02:47.014Z,23.37
2019-05-01T21:05:38.716Z,24.13
2019-05-01T21:08:13.098Z,25.07
2019-05-01T21:10:53.868Z,23.27
2019-05-01T21:13:25.098Z,25.27
2019-05-01T21:15:56.470Z,23.93
2019-05-01T21:18:28.186Z,22.87
2019-05-01T21:20:58.590Z,25.77
2019-05-01T21:23:31.127Z,26.07
2019-05-01T21:26:01.481Z,28.30
2019-05-01T21:28:33.934Z,25.07
2019-05-01T21:31:04.059Z,23.27
2019-05-01T21:33:34.464Z,24.30
2019-05-01T21:36:08.447Z,26.97
2019-05-01T21:38:36.991Z,21.50
2019-05-01T21:41:07.347Z,25.43
2019-05-01T21:43:37.750Z,25.93
2019-05-01T21:46:08.362Z,19.67
2019-05-01T21:48:38.695Z,25.67
2019-05-01T21:51:09.045Z,22.93
2019-05-01T21:53:42.791Z,25.17
2019-05-01T21:56:11.697Z,22.93
2019-05-01T21:58:42.163Z,24.87
2019-05-01T22:01:15.401Z,24.83
2019-05-01T22:03:45.878Z,23.40
2019-05-01T22:06:16.718Z,27.43
2019-05-01T22:08:47.149Z,21.53
2019-05-01T22:11:17.501Z,24.87
2019-05-01T22:13:48.133Z,24.70
2019-05-01T22:16:23.710Z,24.33
2019-05-01T22:19:02.298Z,26.43
2019-05-01T22:21:44.704Z,26.93
2019-05-01T22:24:22.971Z,24.43
2019-05-01T22:27:01.109Z,24.67
2019-05-01T22:29:34.194Z,22.73
2019-05-01T22:32:27.734Z,24.27
2019-05-01T22:35:21.131Z,23.87
2019-05-01T22:37:51.939Z,25.40
2019-05-01T22:40:35.596Z,21.50
2019-05-01T22:43:05.954Z,24.93
2019-05-01T22:45:36.374Z,24.97
2019-05-01T22:48:06.771Z,25.23
2019-05-01T22:50:37.172Z,21.30
2019-05-01T22:53:12.840Z,25.33
2019-05-01T22:55:40.136Z,23.27
2019-05-01T22:58:10.698Z,21.90
2019-05-01T23:00:48.239Z,24.90
2019-05-01T23:03:26.229Z,24.13
2019-05-01T23:05:56.553Z,25.57
2019-05-01T23:08:26.965Z,23.77
2019-05-01T23:10:57.461Z,25.73
2019-05-01T23:13:32.270Z,22.67
2019-05-01T23:16:02.652Z,25.80
2019-05-01T23:18:33.043Z,22.83
2019-05-01T23:21:03.644Z,25.30
2019-05-01T23:23:34.026Z,27.17
2019-05-01T23:26:05.459Z,27.07
2019-05-01T23:28:39.856Z,28.37
2019-05-01T23:31:09.720Z,28.67
2019-05-01T23:33:40.053Z,25.00
2019-05-01T23:36:22.930Z,26.87
2019-05-01T23:38:42.434Z,24.33
2019-05-01T23:41:13.107Z,25.50
2019-05-01T23:43:43.440Z,23.70
2019-05-01T23:46:13.806Z,27.60
2019-05-01T23:48:44.182Z,24.57
2019-05-01T23:51:14.641Z,28.60
2019-05-01T23:53:48.260Z,30.20
2019-05-01T23:56:17.032Z,31.53
2019-05-01T23:58:47.416Z,28.90
